sensor_id;sensor_type;location;lat;lon;timestamp;pressure;altitude;pressure_sealevel;temperature;humidity
59053;BME280;44843;44.728;10.396;2023-02-03T00:01:08;101308.31;;;6.85;nan
59053;BME280;44843;44.728;10.396;2023-02-03T00:03:33;101314.00;;;6.97;nan
59053;BME280;44843;44.728;10.396;2023-02-03T00:06:00;101318.06;;;7.06;nan
59053;BME280;44843;44.728;10.396;2023-02-03T00:08:26;101315.47;;;7.06;nan
59053;BME280;44843;44.728;10.396;2023-02-03T00:10:52;101317.28;;;7.04;100.00
59053;BME280;44843;44.728;10.396;2023-02-03T00:13:18;101316.81;;;6.90;nan
59053;BME280;44843;44.728;10.396;2023-02-03T00:15:44;101322.91;;;6.89;nan
59053;BME280;44843;44.728;10.396;2023-02-03T00:18:09;101322.91;;;6.89;nan
59053;BME280;44843;44.728;10.396;2023-02-03T00:20:35;101327.63;;;6.74;nan
59053;BME280;44843;44.728;10.396;2023-02-03T00:23:08;101321.06;;;6.61;nan
59053;BME280;44843;44.728;10.396;2023-02-03T00:25:34;101327.88;;;6.65;nan
59053;BME280;44843;44.728;10.396;2023-02-03T00:28:00;101335.25;;;6.48;nan
59053;BME280;44843;44.728;10.396;2023-02-03T00:30:26;101329.66;;;6.63;nan
59053;BME280;44843;44.728;10.396;2023-02-03T00:32:51;101335.56;;;6.68;nan
59053;BME280;44843;44.728;10.396;2023-02-03T00:35:16;101330.19;;;6.74;nan
59053;BME280;44843;44.728;10.396;2023-02-03T00:37:42;101320.94;;;6.66;nan
59053;BME280;44843;44.728;10.396;2023-02-03T00:40:08;101329.22;;;6.47;nan
59053;BME280;44843;44.728;10.396;2023-02-03T00:42:34;101332.56;;;6.51;nan
59053;BME280;44843;44.728;10.396;2023-02-03T00:45:00;101333.19;;;6.60;nan
59053;BME280;44843;44.728;10.396;2023-02-03T00:47:25;101332.66;;;6.54;0.00
59053;BME280;44843;44.728;10.396;2023-02-03T00:49:51;101343.41;;;6.65;nan
59053;BME280;44843;44.728;10.396;2023-02-03T00:52:16;101347.81;;;6.62;nan
59053;BME280;44843;44.728;10.396;2023-02-03T00:54:42;101352.22;;;6.58;nan
59053;BME280;44843;44.728;10.396;2023-02-03T00:57:07;101350.53;;;6.57;nan
59053;BME280;44843;44.728;10.396;2023-02-03T00:59:32;101354.94;;;6.53;nan
59053;BME280;44843;44.728;10.396;2023-02-03T01:01:58;101352.72;;;6.39;nan
59053;BME280;44843;44.728;10.396;2023-02-03T01:04:23;101353.56;;;6.40;nan
59053;BME280;44843;44.728;10.396;2023-02-03T01:06:48;101357.44;;;6.24;nan
59053;BME280;44843;44.728;10.396;2023-02-03T01:09:14;101356.66;;;6.20;nan
59053;BME280;44843;44.728;10.396;2023-02-03T01:11:39;101351.72;;;6.09;nan
59053;BME280;44843;44.728;10.396;2023-02-03T01:14:05;101347.00;;;5.89;nan
59053;BME280;44843;44.728;10.396;2023-02-03T01:16:30;101348.81;;;5.86;nan
59053;BME280;44843;44.728;10.396;2023-02-03T01:18:59;101344.53;;;5.85;nan
59053;BME280;44843;44.728;10.396;2023-02-03T01:21:25;101345.84;;;5.64;nan
59053;BME280;44843;44.728;10.396;2023-02-03T01:23:51;101357.09;;;5.64;nan
59053;BME280;44843;44.728;10.396;2023-02-03T01:26:20;101353.00;;;5.52;nan
59053;BME280;44843;44.728;10.396;2023-02-03T01:28:56;101355.63;;;5.51;nan
59053;BME280;44843;44.728;10.396;2023-02-03T01:31:25;101356.09;;;5.29;nan
59053;BME280;44843;44.728;10.396;2023-02-03T01:33:52;101350.63;;;5.43;nan
59053;BME280;44843;44.728;10.396;2023-02-03T01:36:19;101359.09;;;5.51;nan
59053;BME280;44843;44.728;10.396;2023-02-03T01:38:45;101359.25;;;5.42;nan
59053;BME280;44843;44.728;10.396;2023-02-03T01:41:19;101351.66;;;5.36;nan
59053;BME280;44843;44.728;10.396;2023-02-03T01:43:48;101349.16;;;5.31;nan
59053;BME280;44843;44.728;10.396;2023-02-03T01:46:20;101348.88;;;5.44;nan
59053;BME280;44843;44.728;10.396;2023-02-03T01:48:46;101338.66;;;5.37;nan
59053;BME280;44843;44.728;10.396;2023-02-03T01:51:12;101341.03;;;5.48;nan
59053;BME280;44843;44.728;10.396;2023-02-03T01:53:38;101333.72;;;5.66;nan
59053;BME280;44843;44.728;10.396;2023-02-03T01:56:05;101341.78;;;5.53;nan
59053;BME280;44843;44.728;10.396;2023-02-03T01:58:32;101340.63;;;5.67;nan
59053;BME280;44843;44.728;10.396;2023-02-03T02:00:59;101351.03;;;5.64;nan
59053;BME280;44843;44.728;10.396;2023-02-03T02:03:30;101344.41;;;5.52;nan
59053;BME280;44843;44.728;10.396;2023-02-03T02:06:03;101350.13;;;5.26;nan
59053;BME280;44843;44.728;10.396;2023-02-03T02:08:29;101355.09;;;5.35;nan
59053;BME280;44843;44.728;10.396;2023-02-03T02:10:57;101351.31;;;5.51;nan
59053;BME280;44843;44.728;10.396;2023-02-03T02:13:24;101354.19;;;5.37;nan
59053;BME280;44843;44.728;10.396;2023-02-03T02:31:50;101342.66;;;5.12;nan
59053;BME280;44843;44.728;10.396;2023-02-03T02:42:19;101341.03;;;5.08;nan
59053;BME280;44843;44.728;10.396;2023-02-03T02:44:51;101335.31;;;4.92;nan
59053;BME280;44843;44.728;10.396;2023-02-03T02:47:19;101342.25;;;4.90;nan
59053;BME280;44843;44.728;10.396;2023-02-03T02:52:20;101347.28;;;4.96;nan
59053;BME280;44843;44.728;10.396;2023-02-03T02:54:51;101347.13;;;5.05;nan
59053;BME280;44843;44.728;10.396;2023-02-03T02:57:17;101346.34;;;5.00;nan
59053;BME280;44843;44.728;10.396;2023-02-03T02:59:45;101336.78;;;5.04;nan
59053;BME280;44843;44.728;10.396;2023-02-03T03:02:11;101337.97;;;4.87;nan
59053;BME280;44843;44.728;10.396;2023-02-03T03:04:37;101345.13;;;4.74;nan
59053;BME280;44843;44.728;10.396;2023-02-03T03:07:09;101349.47;;;4.72;nan
59053;BME280;44843;44.728;10.396;2023-02-03T03:09:47;101358.94;;;4.72;nan
59053;BME280;44843;44.728;10.396;2023-02-03T03:12:24;101354.78;;;4.72;nan
59053;BME280;44843;44.728;10.396;2023-02-03T03:15:10;101353.09;;;4.62;nan
59053;BME280;44843;44.728;10.396;2023-02-03T03:17:41;56223.53;;;4.62;100.00
59053;BME280;44843;44.728;10.396;2023-02-03T03:20:12;78386.47;;;4.62;nan
59053;BME280;44843;44.728;10.396;2023-02-03T03:22:43;148539.75;;;4.48;nan
59053;BME280;44843;44.728;10.396;2023-02-03T03:25:18;104233.38;;;4.44;nan
59053;BME280;44843;44.728;10.396;2023-02-03T03:27:54;101350.03;;;4.42;nan
59053;BME280;44843;44.728;10.396;2023-02-03T03:30:24;101356.22;;;4.31;nan
59053;BME280;44843;44.728;10.396;2023-02-03T03:32:51;101354.63;;;4.24;nan
59053;BME280;44843;44.728;10.396;2023-02-03T03:35:17;101356.19;;;4.33;nan
59053;BME280;44843;44.728;10.396;2023-02-03T03:37:51;101355.19;;;4.42;nan
59053;BME280;44843;44.728;10.396;2023-02-03T03:40:26;101355.19;;;4.42;nan
59053;BME280;44843;44.728;10.396;2023-02-03T03:43:13;101349.75;;;4.57;nan
59053;BME280;44843;44.728;10.396;2023-02-03T03:45:44;101349.56;;;4.66;nan
59053;BME280;44843;44.728;10.396;2023-02-03T03:48:20;101347.94;;;4.61;nan
59053;BME280;44843;44.728;10.396;2023-02-03T03:50:54;101348.59;;;4.72;nan
59053;BME280;44843;44.728;10.396;2023-02-03T03:53:22;101343.31;;;4.78;nan
59053;BME280;44843;44.728;10.396;2023-02-03T03:55:50;101343.41;;;4.72;nan
59053;BME280;44843;44.728;10.396;2023-02-03T03:58:23;101349.47;;;4.72;nan
59053;BME280;44843;44.728;10.396;2023-02-03T04:00:53;101354.00;;;4.60;nan
59053;BME280;44843;44.728;10.396;2023-02-03T04:03:23;101356.50;;;4.64;nan
59053;BME280;44843;44.728;10.396;2023-02-03T04:05:49;101356.53;;;4.61;nan
59053;BME280;44843;44.728;10.396;2023-02-03T04:08:15;101357.44;;;4.59;nan
59053;BME280;44843;44.728;10.396;2023-02-03T04:10:41;101356.25;;;4.77;nan
59053;BME280;44843;44.728;10.396;2023-02-03T04:13:08;101348.69;;;4.67;nan
59053;BME280;44843;44.728;10.396;2023-02-03T04:15:34;101352.44;;;4.51;nan
59053;BME280;44843;44.728;10.396;2023-02-03T04:18:00;101371.94;;;4.67;nan
59053;BME280;44843;44.728;10.396;2023-02-03T04:20:27;101370.13;;;4.72;nan
59053;BME280;44843;44.728;10.396;2023-02-03T04:22:52;101371.09;;;4.67;nan
59053;BME280;44843;44.728;10.396;2023-02-03T04:25:19;101365.19;;;4.59;nan
59053;BME280;44843;44.728;10.396;2023-02-03T04:27:45;101366.84;;;4.63;nan
59053;BME280;44843;44.728;10.396;2023-02-03T04:30:11;101370.41;;;4.57;nan
59053;BME280;44843;44.728;10.396;2023-02-03T04:32:37;101362.63;;;4.59;nan
59053;BME280;44843;44.728;10.396;2023-02-03T04:35:06;101363.34;;;4.65;nan
59053;BME280;44843;44.728;10.396;2023-02-03T04:37:32;101375.41;;;4.66;nan
59053;BME280;44843;44.728;10.396;2023-02-03T04:39:58;101372.00;;;4.64;nan
59053;BME280;44843;44.728;10.396;2023-02-03T04:42:24;101368.59;;;4.62;nan
59053;BME280;44843;44.728;10.396;2023-02-03T04:44:50;101372.63;;;4.77;nan
59053;BME280;44843;44.728;10.396;2023-02-03T04:47:16;101381.78;;;4.93;nan
59053;BME280;44843;44.728;10.396;2023-02-03T04:49:41;101380.22;;;4.85;nan
59053;BME280;44843;44.728;10.396;2023-02-03T04:52:07;101378.53;;;4.84;nan
59053;BME280;44843;44.728;10.396;2023-02-03T04:54:32;101380.31;;;4.82;nan
59053;BME280;44843;44.728;10.396;2023-02-03T04:56:58;101382.22;;;4.70;nan
59053;BME280;44843;44.728;10.396;2023-02-03T04:59:24;101384.94;;;4.63;nan
59053;BME280;44843;44.728;10.396;2023-02-03T05:01:49;101391.69;;;4.70;nan
59053;BME280;44843;44.728;10.396;2023-02-03T05:04:14;101379.78;;;4.61;nan
59053;BME280;44843;44.728;10.396;2023-02-03T05:06:40;101373.84;;;4.56;nan
59053;BME280;44843;44.728;10.396;2023-02-03T05:09:05;101378.19;;;4.56;nan
59053;BME280;44843;44.728;10.396;2023-02-03T05:11:31;101374.31;;;4.28;nan
59053;BME280;44843;44.728;10.396;2023-02-03T05:13:56;101382.03;;;4.30;nan
59053;BME280;44843;44.728;10.396;2023-02-03T05:16:22;101382.63;;;4.46;nan
59053;BME280;44843;44.728;10.396;2023-02-03T05:18:47;101376.50;;;4.53;nan
59053;BME280;44843;44.728;10.396;2023-02-03T05:21:13;101371.47;;;4.44;nan
59053;BME280;44843;44.728;10.396;2023-02-03T05:23:38;101372.66;;;4.26;nan
59053;BME280;44843;44.728;10.396;2023-02-03T05:26:04;101362.88;;;4.45;nan
59053;BME280;44843;44.728;10.396;2023-02-03T05:28:29;101353.66;;;4.28;nan
59053;BME280;44843;44.728;10.396;2023-02-03T05:31:00;101350.16;;;4.32;nan
59053;BME280;44843;44.728;10.396;2023-02-03T05:33:26;101355.38;;;4.31;nan
59053;BME280;44843;44.728;10.396;2023-02-03T05:35:51;101353.47;;;4.39;nan
59053;BME280;44843;44.728;10.396;2023-02-03T05:38:17;101351.81;;;4.35;nan
59053;BME280;44843;44.728;10.396;2023-02-03T05:40:42;101351.72;;;4.43;nan
59053;BME280;44843;44.728;10.396;2023-02-03T05:43:27;101360.94;;;4.56;nan
59053;BME280;44843;44.728;10.396;2023-02-03T05:45:53;101361.16;;;4.44;nan
59053;BME280;44843;44.728;10.396;2023-02-03T05:48:18;101367.53;;;4.23;nan
59053;BME280;44843;44.728;10.396;2023-02-03T05:50:43;101367.56;;;4.21;nan
59053;BME280;44843;44.728;10.396;2023-02-03T05:53:09;101367.78;;;4.09;nan
59053;BME280;44843;44.728;10.396;2023-02-03T05:55:36;101366.91;;;4.08;nan
59053;BME280;44843;44.728;10.396;2023-02-03T05:58:02;101369.34;;;4.18;nan
59053;BME280;44843;44.728;10.396;2023-02-03T06:00:28;101365.03;;;4.18;nan
59053;BME280;44843;44.728;10.396;2023-02-03T06:02:58;101362.78;;;3.97;nan
59053;BME280;44843;44.728;10.396;2023-02-03T06:05:25;101361.25;;;3.85;nan
59053;BME280;44843;44.728;10.396;2023-02-03T06:07:51;101377.53;;;3.87;nan
59053;BME280;44843;44.728;10.396;2023-02-03T06:10:16;101373.25;;;3.87;nan
59053;BME280;44843;44.728;10.396;2023-02-03T06:12:42;101368.13;;;3.84;nan
59053;BME280;44843;44.728;10.396;2023-02-03T06:15:09;101364.03;;;3.69;nan
59053;BME280;44843;44.728;10.396;2023-02-03T06:17:35;101365.69;;;3.74;nan
59053;BME280;44843;44.728;10.396;2023-02-03T06:20:05;101366.50;;;3.79;nan
59053;BME280;44843;44.728;10.396;2023-02-03T06:22:31;101367.28;;;3.82;nan
59053;BME280;44843;44.728;10.396;2023-02-03T06:24:57;101382.88;;;3.76;nan
59053;BME280;44843;44.728;10.396;2023-02-03T06:27:22;101394.06;;;3.75;nan
59053;BME280;44843;44.728;10.396;2023-02-03T06:29:48;101400.84;;;3.82;nan
59053;BME280;44843;44.728;10.396;2023-02-03T06:32:13;101403.00;;;4.11;nan
59053;BME280;44843;44.728;10.396;2023-02-03T06:34:39;101417.34;;;3.69;nan
59053;BME280;44843;44.728;10.396;2023-02-03T06:37:05;101419.38;;;3.45;nan
59053;BME280;44843;44.728;10.396;2023-02-03T06:39:30;101430.56;;;3.46;nan
59053;BME280;44843;44.728;10.396;2023-02-03T06:41:56;101429.97;;;3.24;nan
59053;BME280;44843;44.728;10.396;2023-02-03T06:44:21;101435.13;;;3.22;nan
59053;BME280;44843;44.728;10.396;2023-02-03T06:46:47;101443.91;;;3.04;nan
59053;BME280;44843;44.728;10.396;2023-02-03T06:49:12;101450.72;;;3.12;nan
59053;BME280;44843;44.728;10.396;2023-02-03T06:51:38;101449.75;;;3.20;nan
59053;BME280;44843;44.728;10.396;2023-02-03T06:54:03;101435.13;;;3.21;nan
59053;BME280;44843;44.728;10.396;2023-02-03T06:56:29;101434.94;;;3.39;nan
59053;BME280;44843;44.728;10.396;2023-02-03T06:58:55;101447.84;;;3.36;nan
59053;BME280;44843;44.728;10.396;2023-02-03T07:01:21;101433.84;;;3.59;nan
59053;BME280;44843;44.728;10.396;2023-02-03T07:03:47;101432.00;;;3.67;nan
59053;BME280;44843;44.728;10.396;2023-02-03T07:06:13;101429.47;;;3.65;nan
59053;BME280;44843;44.728;10.396;2023-02-03T07:08:39;101418.19;;;3.71;nan
59053;BME280;44843;44.728;10.396;2023-02-03T07:11:06;101410.38;;;3.76;nan
59053;BME280;44843;44.728;10.396;2023-02-03T07:13:31;101418.03;;;3.83;nan
59053;BME280;44843;44.728;10.396;2023-02-03T07:15:56;101426.69;;;3.81;nan
59053;BME280;44843;44.728;10.396;2023-02-03T07:18:22;101432.91;;;3.64;nan
59053;BME280;44843;44.728;10.396;2023-02-03T07:20:52;101434.50;;;3.75;nan
59053;BME280;44843;44.728;10.396;2023-02-03T07:23:18;101435.81;;;4.03;nan
59053;BME280;44843;44.728;10.396;2023-02-03T07:25:43;101440.75;;;4.20;nan
59053;BME280;44843;44.728;10.396;2023-02-03T07:28:09;101441.44;;;4.31;nan
59053;BME280;44843;44.728;10.396;2023-02-03T07:30:34;101448.50;;;4.17;nan
59053;BME280;44843;44.728;10.396;2023-02-03T07:33:00;101453.03;;;4.03;nan
59053;BME280;44843;44.728;10.396;2023-02-03T07:35:26;101459.88;;;4.07;nan
59053;BME280;44843;44.728;10.396;2023-02-03T07:37:51;101460.78;;;4.01;nan
59053;BME280;44843;44.728;10.396;2023-02-03T07:40:17;101467.50;;;4.15;nan
59053;BME280;44843;44.728;10.396;2023-02-03T07:42:44;101485.50;;;4.19;nan
59053;BME280;44843;44.728;10.396;2023-02-03T07:45:10;101488.97;;;4.18;nan
59053;BME280;44843;44.728;10.396;2023-02-03T07:47:36;101514.81;;;4.15;nan
59053;BME280;44843;44.728;10.396;2023-02-03T07:50:02;104485.66;;;3.94;nan
59053;BME280;44843;44.728;10.396;2023-02-03T07:52:28;101533.25;;;3.84;nan
59053;BME280;44843;44.728;10.396;2023-02-03T07:54:53;101536.03;;;3.69;nan
59053;BME280;44843;44.728;10.396;2023-02-03T07:57:19;101524.47;;;3.25;nan
59053;BME280;44843;44.728;10.396;2023-02-03T07:59:44;101521.13;;;3.15;nan
59053;BME280;44843;44.728;10.396;2023-02-03T08:02:09;101501.31;;;3.19;nan
59053;BME280;44843;44.728;10.396;2023-02-03T08:04:38;101510.47;;;3.49;nan
59053;BME280;44843;44.728;10.396;2023-02-03T08:07:03;101516.22;;;3.74;nan
59053;BME280;44843;44.728;10.396;2023-02-03T08:09:29;101514.47;;;3.73;nan
59053;BME280;44843;44.728;10.396;2023-02-03T08:11:54;101516.88;;;3.90;nan
59053;BME280;44843;44.728;10.396;2023-02-03T08:14:19;101513.50;;;3.83;nan
59053;BME280;44843;44.728;10.396;2023-02-03T08:16:45;101535.25;;;4.30;nan
59053;BME280;44843;44.728;10.396;2023-02-03T08:19:11;101547.91;;;4.50;nan
59053;BME280;44843;44.728;10.396;2023-02-03T08:21:36;101555.19;;;4.21;nan
59053;BME280;44843;44.728;10.396;2023-02-03T08:24:02;101563.84;;;4.18;nan
59053;BME280;44843;44.728;10.396;2023-02-03T08:26:27;101570.69;;;4.19;nan
59053;BME280;44843;44.728;10.396;2023-02-03T08:28:53;101579.53;;;4.01;nan
59053;BME280;44843;44.728;10.396;2023-02-03T08:31:18;101578.69;;;4.01;nan
59053;BME280;44843;44.728;10.396;2023-02-03T08:33:43;101568.66;;;3.73;nan
59053;BME280;44843;44.728;10.396;2023-02-03T08:36:09;101566.03;;;3.78;nan
59053;BME280;44843;44.728;10.396;2023-02-03T08:38:36;101583.34;;;3.68;nan
59053;BME280;44843;44.728;10.396;2023-02-03T08:41:07;101582.03;;;4.06;nan
59053;BME280;44843;44.728;10.396;2023-02-03T08:43:32;101591.88;;;3.76;nan
59053;BME280;44843;44.728;10.396;2023-02-03T08:46:02;101595.50;;;3.55;nan
59053;BME280;44843;44.728;10.396;2023-02-03T08:48:27;101592.28;;;3.33;nan
59053;BME280;44843;44.728;10.396;2023-02-03T08:50:52;101582.13;;;3.15;nan
59053;BME280;44843;44.728;10.396;2023-02-03T08:53:18;101565.88;;;3.06;nan
59053;BME280;44843;44.728;10.396;2023-02-03T08:55:44;101562.28;;;3.21;nan
59053;BME280;44843;44.728;10.396;2023-02-03T08:58:09;101569.09;;;3.32;nan
59053;BME280;44843;44.728;10.396;2023-02-03T09:00:34;101571.41;;;3.56;nan
59053;BME280;44843;44.728;10.396;2023-02-03T09:03:00;101568.34;;;3.99;nan
59053;BME280;44843;44.728;10.396;2023-02-03T09:05:25;101570.75;;;4.13;nan
59053;BME280;44843;44.728;10.396;2023-02-03T09:07:50;101569.69;;;4.31;nan
59053;BME280;44843;44.728;10.396;2023-02-03T09:10:16;101546.69;;;4.73;nan
59053;BME280;44843;44.728;10.396;2023-02-03T09:12:41;101537.00;;;5.35;nan
59053;BME280;44843;44.728;10.396;2023-02-03T09:15:07;101539.69;;;5.76;nan
59053;BME280;44843;44.728;10.396;2023-02-03T09:17:33;101533.81;;;5.68;nan
59053;BME280;44843;44.728;10.396;2023-02-03T09:19:58;101524.38;;;5.65;nan
59053;BME280;44843;44.728;10.396;2023-02-03T09:22:23;101514.28;;;5.96;nan
59053;BME280;44843;44.728;10.396;2023-02-03T09:24:49;101521.06;;;6.04;nan
59053;BME280;44843;44.728;10.396;2023-02-03T09:27:15;101520.63;;;6.24;nan
59053;BME280;44843;44.728;10.396;2023-02-03T09:29:40;101513.72;;;6.23;nan
59053;BME280;44843;44.728;10.396;2023-02-03T09:32:06;101512.84;;;6.24;nan
59053;BME280;44843;44.728;10.396;2023-02-03T09:34:34;101514.28;;;6.35;nan
59053;BME280;44843;44.728;10.396;2023-02-03T09:37:00;101522.53;;;6.53;nan
59053;BME280;44843;44.728;10.396;2023-02-03T09:39:25;101536.19;;;6.61;nan
59053;BME280;44843;44.728;10.396;2023-02-03T09:45:16;101512.00;;;6.60;nan
59053;BME280;44843;44.728;10.396;2023-02-03T09:47:44;101509.16;;;6.71;nan
59053;BME280;44843;44.728;10.396;2023-02-03T09:50:19;101515.06;;;6.76;nan
59053;BME280;44843;44.728;10.396;2023-02-03T09:52:45;101519.22;;;6.48;nan
59053;BME280;44843;44.728;10.396;2023-02-03T09:57:48;101523.69;;;6.41;nan
59053;BME280;44843;44.728;10.396;2023-02-03T10:00:20;101511.69;;;6.73;nan
59053;BME280;44843;44.728;10.396;2023-02-03T10:08:51;101498.22;;;6.93;nan
59053;BME280;44843;44.728;10.396;2023-02-03T10:19:08;101517.78;;;5.95;nan
59053;BME280;44843;44.728;10.396;2023-02-03T10:21:39;101525.94;;;6.16;nan
59053;BME280;44843;44.728;10.396;2023-02-03T10:24:11;101524.47;;;6.06;nan
59053;BME280;44843;44.728;10.396;2023-02-03T10:26:38;101532.53;;;5.89;nan
59053;BME280;44843;44.728;10.396;2023-02-03T10:29:20;101537.75;;;5.86;nan
59053;BME280;44843;44.728;10.396;2023-02-03T10:31:48;101540.28;;;5.47;nan
59053;BME280;44843;44.728;10.396;2023-02-03T10:34:15;101559.41;;;5.83;nan
59053;BME280;44843;44.728;10.396;2023-02-03T10:39:31;101520.13;;;6.06;nan
59053;BME280;44843;44.728;10.396;2023-02-03T10:42:00;101506.53;;;6.35;nan
59053;BME280;44843;44.728;10.396;2023-02-03T10:44:34;101511.72;;;6.34;nan
59053;BME280;44843;44.728;10.396;2023-02-03T10:47:00;101510.63;;;6.07;nan
59053;BME280;44843;44.728;10.396;2023-02-03T10:49:27;101512.66;;;6.31;nan
59053;BME280;44843;44.728;10.396;2023-02-03T10:51:54;101499.75;;;6.30;nan
59053;BME280;44843;44.728;10.396;2023-02-03T10:54:35;101495.84;;;6.49;nan
59053;BME280;44843;44.728;10.396;2023-02-03T10:57:06;101501.44;;;7.04;nan
59053;BME280;44843;44.728;10.396;2023-02-03T10:59:40;101507.19;;;7.15;nan
59053;BME280;44843;44.728;10.396;2023-02-03T11:02:09;101507.66;;;7.30;nan
59053;BME280;44843;44.728;10.396;2023-02-03T11:04:35;101504.22;;;7.29;68.77
59053;BME280;44843;44.728;10.396;2023-02-03T11:07:06;101494.53;;;7.34;nan
59053;BME280;44843;44.728;10.396;2023-02-03T11:12:06;101491.53;;;7.50;nan
59053;BME280;44843;44.728;10.396;2023-02-03T11:14:42;101489.13;;;7.43;nan
59053;BME280;44843;44.728;10.396;2023-02-03T11:17:16;101481.44;;;7.39;nan
59053;BME280;44843;44.728;10.396;2023-02-03T11:19:46;101481.78;;;7.28;nan
59053;BME280;44843;44.728;10.396;2023-02-03T11:22:26;101476.75;;;7.53;nan
59053;BME280;44843;44.728;10.396;2023-02-03T11:24:53;101474.31;;;7.47;68.77
59053;BME280;44843;44.728;10.396;2023-02-03T11:27:19;101474.31;;;7.47;nan
59053;BME280;44843;44.728;10.396;2023-02-03T11:29:48;101460.00;;;7.63;nan
59053;BME280;44843;44.728;10.396;2023-02-03T11:32:18;101460.91;;;7.62;nan
59053;BME280;44843;44.728;10.396;2023-02-03T11:34:55;101464.59;;;7.54;nan
59053;BME280;44843;44.728;10.396;2023-02-03T11:37:25;101462.88;;;7.54;nan
59053;BME280;44843;44.728;10.396;2023-02-03T11:39:55;101466.06;;;7.64;nan
59053;BME280;44843;44.728;10.396;2023-02-03T11:42:22;101458.31;;;7.92;nan
59053;BME280;44843;44.728;10.396;2023-02-03T11:44:48;101451.22;;;7.97;nan
59053;BME280;44843;44.728;10.396;2023-02-03T11:47:14;101449.22;;;8.05;nan
59053;BME280;44843;44.728;10.396;2023-02-03T11:50:12;101452.78;;;8.31;nan
59053;BME280;44843;44.728;10.396;2023-02-03T11:55:33;101449.00;;;8.41;nan
59053;BME280;44843;44.728;10.396;2023-02-03T12:03:48;101424.72;;;8.42;nan
59053;BME280;44843;44.728;10.396;2023-02-03T12:09:21;101404.19;;;8.33;nan
59053;BME280;44843;44.728;10.396;2023-02-03T12:14:55;101384.34;;;8.31;nan
59053;BME280;44843;44.728;10.396;2023-02-03T12:20:33;101365.88;;;8.40;nan
59053;BME280;44843;44.728;10.396;2023-02-03T12:33:49;101332.94;;;8.40;nan
59053;BME280;44843;44.728;10.396;2023-02-03T12:36:26;101327.09;;;8.59;nan
59053;BME280;44843;44.728;10.396;2023-02-03T12:39:05;101316.03;;;8.54;nan
59053;BME280;44843;44.728;10.396;2023-02-03T12:41:39;101300.09;;;8.63;nan
59053;BME280;44843;44.728;10.396;2023-02-03T12:44:16;101288.06;;;8.60;nan
59053;BME280;44843;44.728;10.396;2023-02-03T12:46:55;101281.28;;;8.80;nan
59053;BME280;44843;44.728;10.396;2023-02-03T12:59:38;101266.13;;;9.37;nan
59053;BME280;44843;44.728;10.396;2023-02-03T13:02:16;101270.56;;;9.35;nan
59053;BME280;44843;44.728;10.396;2023-02-03T13:04:48;101273.31;;;9.08;nan
59053;BME280;44843;44.728;10.396;2023-02-03T13:07:20;101262.53;;;9.17;nan
59053;BME280;44843;44.728;10.396;2023-02-03T13:10:35;101249.53;;;9.17;nan
59053;BME280;44843;44.728;10.396;2023-02-03T13:12:55;101238.47;;;9.12;nan
59053;BME280;44843;44.728;10.396;2023-02-03T13:15:34;101231.09;;;9.23;nan
59053;BME280;44843;44.728;10.396;2023-02-03T13:20:35;101232.16;;;9.40;nan
59053;BME280;44843;44.728;10.396;2023-02-03T13:23:05;101227.31;;;9.31;nan
59053;BME280;44843;44.728;10.396;2023-02-03T13:26:02;101218.06;;;9.23;nan
59053;BME280;44843;44.728;10.396;2023-02-03T13:34:32;101212.50;;;9.33;nan
59053;BME280;44843;44.728;10.396;2023-02-03T13:42:37;101212.41;;;9.56;nan
59053;BME280;44843;44.728;10.396;2023-02-03T13:47:45;101209.44;;;9.86;nan
59053;BME280;44843;44.728;10.396;2023-02-03T13:50:21;101204.09;;;10.09;nan
59053;BME280;44843;44.728;10.396;2023-02-03T13:53:00;101199.75;;;10.30;nan
59053;BME280;44843;44.728;10.396;2023-02-03T13:55:38;101198.06;;;10.09;nan
59053;BME280;44843;44.728;10.396;2023-02-03T13:58:17;101192.00;;;10.08;nan
59053;BME280;44843;44.728;10.396;2023-02-03T14:03:42;101196.09;;;9.94;nan
59053;BME280;44843;44.728;10.396;2023-02-03T14:19:58;101177.41;;;9.63;nan
59053;BME280;44843;44.728;10.396;2023-02-03T14:22:23;101168.16;;;9.77;nan
59053;BME280;44843;44.728;10.396;2023-02-03T14:24:53;101174.59;;;9.68;nan
59053;BME280;44843;44.728;10.396;2023-02-03T14:27:22;101174.00;;;9.61;nan
59053;BME280;44843;44.728;10.396;2023-02-03T14:30:10;101178.91;;;9.69;nan
59053;BME280;44843;44.728;10.396;2023-02-03T14:32:55;101178.00;;;9.70;nan
59053;BME280;44843;44.728;10.396;2023-02-03T14:35:36;101186.59;;;9.72;nan
59053;BME280;44843;44.728;10.396;2023-02-03T14:38:06;101182.09;;;9.76;nan
59053;BME280;44843;44.728;10.396;2023-02-03T14:41:01;101189.78;;;9.99;nan
59053;BME280;44843;44.728;10.396;2023-02-03T14:49:16;101170.72;;;10.38;nan
59053;BME280;44843;44.728;10.396;2023-02-03T15:03:22;101154.72;;;10.06;nan
59053;BME280;44843;44.728;10.396;2023-02-03T15:05:52;101166.25;;;10.01;nan
59053;BME280;44843;44.728;10.396;2023-02-03T15:08:35;101160.41;;;9.96;nan
59053;BME280;44843;44.728;10.396;2023-02-03T15:11:32;101165.56;;;9.97;nan
59053;BME280;44843;44.728;10.396;2023-02-03T15:14:33;101158.84;;;9.92;nan
59053;BME280;44843;44.728;10.396;2023-02-03T15:17:03;101165.81;;;9.91;nan
59053;BME280;44843;44.728;10.396;2023-02-03T15:19:39;101165.25;;;9.84;nan
59053;BME280;44843;44.728;10.396;2023-02-03T15:22:26;101173.50;;;9.94;nan
59053;BME280;44843;44.728;10.396;2023-02-03T15:24:54;101169.47;;;9.87;nan
59053;BME280;44843;44.728;10.396;2023-02-03T15:27:31;101163.34;;;9.88;nan
59053;BME280;44843;44.728;10.396;2023-02-03T15:29:57;101153.69;;;9.90;nan
59053;BME280;44843;44.728;10.396;2023-02-03T15:32:26;101139.41;;;9.80;nan
59053;BME280;44843;44.728;10.396;2023-02-03T15:34:54;101131.81;;;9.94;nan
59053;BME280;44843;44.728;10.396;2023-02-03T15:40:04;101146.19;;;10.23;nan
59053;BME280;44843;44.728;10.396;2023-02-03T15:42:36;101146.56;;;10.35;nan